KSGF

Springfield-Branson National Airport

Springfield, Missouri, USA
METAR KSGF 151412Z 19007KT 10SM -RA FEW009 OVC025 23/21 A2995 RMK AO2 RAB08 P0000 T02280211
Observed Flight Rules
Aug-15 @ 14:12 UTC (48 minutes ago) Marginal Visual Flight Rules
Wind Visibility Clouds Conditions
190° at 7 knots 10 miles
  • Few at 900' AGL
  • Overcast at 2,500' AGL
  • Light Rain
Temperatures Readings Precipitation
Current 23°C / 73°F
Dewpoint 21°C / 70°F
Humidity 89%
Altimeter 29.95" Hg
Pressure 1014 hPa
Elevation 390
Current Rain 0.005
METAR KSGF 151412Z 19007KT 10SM -RA FEW009 OVC025 23/21 A2995 RMK AO2 RAB08 P0000 T02280211
Observed Flight Rules
Aug-15 @ 14:12 UTC
(48 minutes ago)
MVFR
Wind Visibility
190° at 7 knots 10 miles
Clouds
  • Few at 900' AGL
  • Overcast at 2,500' AGL
Conditions
  • Light Rain
Temperature Dewpoint
23°C / 73°F 21°C / 70°F
Humidity Altimeter Pressure
89% 29.95" Hg 1014 hPa
Current Rain
0.005